sensor_id;sensor_type;location;lat;lon;timestamp;pressure;altitude;pressure_sealevel;temperature;humidity
41250;BME280;26984;59.928;30.306;2023-02-28T00:01:05;101043.72;;;0.70;100.00
41250;BME280;26984;59.928;30.306;2023-02-28T00:03:32;101041.91;;;0.71;100.00
41250;BME280;26984;59.928;30.306;2023-02-28T00:06:04;101057.81;;;0.81;100.00
41250;BME280;26984;59.928;30.306;2023-02-28T00:08:32;101043.88;;;0.79;100.00
41250;BME280;26984;59.928;30.306;2023-02-28T00:11:00;101025.88;;;0.82;100.00
41250;BME280;26984;59.928;30.306;2023-02-28T00:13:28;101029.75;;;0.88;100.00
41250;BME280;26984;59.928;30.306;2023-02-28T00:15:59;101057.81;;;0.90;100.00
41250;BME280;26984;59.928;30.306;2023-02-28T00:18:27;101021.75;;;0.98;100.00
41250;BME280;26984;59.928;30.306;2023-02-28T00:20:54;101013.50;;;1.01;100.00
41250;BME280;26984;59.928;30.306;2023-02-28T00:23:23;101010.16;;;0.99;100.00
41250;BME280;26984;59.928;30.306;2023-02-28T00:25:51;101012.38;;;1.03;100.00
41250;BME280;26984;59.928;30.306;2023-02-28T00:28:19;101013.91;;;1.06;100.00
41250;BME280;26984;59.928;30.306;2023-02-28T00:30:46;100998.97;;;1.05;100.00
41250;BME280;26984;59.928;30.306;2023-02-28T00:33:14;101009.16;;;1.09;100.00
41250;BME280;26984;59.928;30.306;2023-02-28T00:35:41;101006.50;;;1.09;100.00
41250;BME280;26984;59.928;30.306;2023-02-28T00:38:09;101012.63;;;1.10;100.00
41250;BME280;26984;59.928;30.306;2023-02-28T00:40:38;101007.19;;;1.11;100.00
41250;BME280;26984;59.928;30.306;2023-02-28T00:43:05;101007.56;;;1.16;100.00
41250;BME280;26984;59.928;30.306;2023-02-28T00:45:33;101010.38;;;1.15;100.00
41250;BME280;26984;59.928;30.306;2023-02-28T00:48:00;100990.81;;;1.16;100.00
41250;BME280;26984;59.928;30.306;2023-02-28T00:50:28;100997.50;;;1.20;100.00
41250;BME280;26984;59.928;30.306;2023-02-28T00:52:56;100998.50;;;1.19;100.00
41250;BME280;26984;59.928;30.306;2023-02-28T00:55:24;100999.31;;;1.19;100.00
41250;BME280;26984;59.928;30.306;2023-02-28T00:57:53;101015.97;;;1.22;100.00
41250;BME280;26984;59.928;30.306;2023-02-28T01:00:21;100980.75;;;1.19;100.00
41250;BME280;26984;59.928;30.306;2023-02-28T01:02:50;100978.25;;;1.18;100.00
41250;BME280;26984;59.928;30.306;2023-02-28T01:05:17;100997.38;;;1.22;100.00
41250;BME280;26984;59.928;30.306;2023-02-28T01:07:45;100971.97;;;1.19;100.00
41250;BME280;26984;59.928;30.306;2023-02-28T01:10:12;100984.25;;;1.20;100.00
41250;BME280;26984;59.928;30.306;2023-02-28T01:12:40;100963.16;;;1.18;100.00
41250;BME280;26984;59.928;30.306;2023-02-28T01:15:10;100958.41;;;1.22;100.00
41250;BME280;26984;59.928;30.306;2023-02-28T01:17:38;100970.13;;;1.19;100.00
41250;BME280;26984;59.928;30.306;2023-02-28T01:20:06;100965.38;;;1.23;100.00
41250;BME280;26984;59.928;30.306;2023-02-28T01:22:34;100959.69;;;1.18;100.00
41250;BME280;26984;59.928;30.306;2023-02-28T01:25:01;100971.50;;;1.24;100.00
41250;BME280;26984;59.928;30.306;2023-02-28T01:27:31;100948.06;;;1.19;100.00
41250;BME280;26984;59.928;30.306;2023-02-28T01:29:58;100940.13;;;1.19;100.00
41250;BME280;26984;59.928;30.306;2023-02-28T01:32:27;100941.09;;;1.18;100.00
41250;BME280;26984;59.928;30.306;2023-02-28T01:34:55;100936.63;;;1.18;100.00
41250;BME280;26984;59.928;30.306;2023-02-28T01:37:22;100933.81;;;1.20;100.00
41250;BME280;26984;59.928;30.306;2023-02-28T01:39:50;100925.19;;;1.18;100.00
41250;BME280;26984;59.928;30.306;2023-02-28T01:42:20;100940.81;;;1.21;100.00
41250;BME280;26984;59.928;30.306;2023-02-28T01:44:57;100929.34;;;1.20;100.00
41250;BME280;26984;59.928;30.306;2023-02-28T01:47:25;100937.47;;;1.19;100.00
41250;BME280;26984;59.928;30.306;2023-02-28T01:49:54;100923.06;;;1.22;100.00
41250;BME280;26984;59.928;30.306;2023-02-28T01:52:22;100912.03;;;1.16;100.00
41250;BME280;26984;59.928;30.306;2023-02-28T01:54:54;100911.91;;;1.18;100.00
41250;BME280;26984;59.928;30.306;2023-02-28T01:57:23;100918.50;;;1.14;100.00
41250;BME280;26984;59.928;30.306;2023-02-28T01:59:51;100925.19;;;1.18;100.00
41250;BME280;26984;59.928;30.306;2023-02-28T02:02:20;100918.06;;;1.18;100.00
41250;BME280;26984;59.928;30.306;2023-02-28T02:04:50;100931.91;;;1.12;100.00
41250;BME280;26984;59.928;30.306;2023-02-28T02:07:20;100974.91;;;1.16;100.00
41250;BME280;26984;59.928;30.306;2023-02-28T02:09:47;100922.00;;;1.14;100.00
41250;BME280;26984;59.928;30.306;2023-02-28T02:12:18;100931.06;;;1.12;100.00
41250;BME280;26984;59.928;30.306;2023-02-28T02:14:53;100911.22;;;1.16;100.00
41250;BME280;26984;59.928;30.306;2023-02-28T02:17:27;100910.66;;;1.12;100.00
41250;BME280;26984;59.928;30.306;2023-02-28T02:20:03;100910.66;;;1.12;100.00
41250;BME280;26984;59.928;30.306;2023-02-28T02:22:42;100917.09;;;1.10;100.00
41250;BME280;26984;59.928;30.306;2023-02-28T02:25:23;100907.47;;;1.09;100.00
41250;BME280;26984;59.928;30.306;2023-02-28T02:28:13;100898.69;;;1.08;100.00
41250;BME280;26984;59.928;30.306;2023-02-28T02:30:54;100903.47;;;1.05;100.00
41250;BME280;26984;59.928;30.306;2023-02-28T02:33:28;100917.25;;;1.08;100.00
41250;BME280;26984;59.928;30.306;2023-02-28T02:36:04;100906.09;;;1.05;100.00
41250;BME280;26984;59.928;30.306;2023-02-28T02:38:34;100895.63;;;1.03;100.00
41250;BME280;26984;59.928;30.306;2023-02-28T02:41:05;100918.53;;;1.04;100.00
41250;BME280;26984;59.928;30.306;2023-02-28T02:43:36;100910.72;;;1.03;100.00
41250;BME280;26984;59.928;30.306;2023-02-28T02:46:06;100908.34;;;1.00;100.00
41250;BME280;26984;59.928;30.306;2023-02-28T02:48:37;100890.31;;;1.03;100.00
41250;BME280;26984;59.928;30.306;2023-02-28T02:51:09;100882.81;;;0.99;100.00
41250;BME280;26984;59.928;30.306;2023-02-28T02:53:41;100897.91;;;0.98;100.00
41250;BME280;26984;59.928;30.306;2023-02-28T02:56:11;100903.78;;;0.92;100.00
41250;BME280;26984;59.928;30.306;2023-02-28T02:58:40;100890.41;;;0.93;100.00
41250;BME280;26984;59.928;30.306;2023-02-28T03:01:10;100891.34;;;0.92;100.00
41250;BME280;26984;59.928;30.306;2023-02-28T03:03:39;100879.50;;;0.97;100.00
41250;BME280;26984;59.928;30.306;2023-02-28T03:06:08;100893.19;;;0.92;100.00
41250;BME280;26984;59.928;30.306;2023-02-28T03:08:37;100861.50;;;0.90;100.00
41250;BME280;26984;59.928;30.306;2023-02-28T03:11:06;100869.47;;;0.90;100.00
41250;BME280;26984;59.928;30.306;2023-02-28T03:13:43;100874.22;;;0.87;100.00
41250;BME280;26984;59.928;30.306;2023-02-28T03:16:20;100876.59;;;0.90;100.00
41250;BME280;26984;59.928;30.306;2023-02-28T03:18:52;100857.31;;;0.88;100.00
41250;BME280;26984;59.928;30.306;2023-02-28T03:21:24;100857.47;;;0.86;100.00
41250;BME280;26984;59.928;30.306;2023-02-28T03:23:56;100867.63;;;0.91;100.00
41250;BME280;26984;59.928;30.306;2023-02-28T03:26:28;100866.94;;;0.89;100.00
41250;BME280;26984;59.928;30.306;2023-02-28T03:28:59;100879.38;;;0.88;100.00
41250;BME280;26984;59.928;30.306;2023-02-28T03:31:30;100859.59;;;0.83;100.00
41250;BME280;26984;59.928;30.306;2023-02-28T03:33:59;100858.59;;;0.84;100.00
41250;BME280;26984;59.928;30.306;2023-02-28T03:36:30;100858.75;;;0.82;100.00
41250;BME280;26984;59.928;30.306;2023-02-28T03:39:03;100863.94;;;0.74;100.00
41250;BME280;26984;59.928;30.306;2023-02-28T03:41:32;100844.66;;;0.82;100.00
41250;BME280;26984;59.928;30.306;2023-02-28T03:44:03;100852.75;;;0.80;100.00
41250;BME280;26984;59.928;30.306;2023-02-28T03:46:34;100873.81;;;0.82;100.00
41250;BME280;26984;59.928;30.306;2023-02-28T03:49:05;100862.53;;;0.80;100.00
41250;BME280;26984;59.928;30.306;2023-02-28T03:51:37;100858.22;;;0.79;100.00
41250;BME280;26984;59.928;30.306;2023-02-28T03:54:06;100853.22;;;0.76;100.00
41250;BME280;26984;59.928;30.306;2023-02-28T03:56:36;100859.06;;;0.79;100.00
41250;BME280;26984;59.928;30.306;2023-02-28T03:59:05;100856.97;;;0.73;100.00
41250;BME280;26984;59.928;30.306;2023-02-28T04:01:35;100860.47;;;0.74;100.00
41250;BME280;26984;59.928;30.306;2023-02-28T04:04:03;100876.28;;;0.65;100.00
41250;BME280;26984;59.928;30.306;2023-02-28T04:06:31;100846.13;;;0.66;100.00
41250;BME280;26984;59.928;30.306;2023-02-28T04:09:01;100843.22;;;0.60;100.00
41250;BME280;26984;59.928;30.306;2023-02-28T04:11:31;100839.91;;;0.58;100.00
41250;BME280;26984;59.928;30.306;2023-02-28T04:13:59;100879.22;;;0.62;100.00
41250;BME280;26984;59.928;30.306;2023-02-28T04:16:28;100857.09;;;0.54;100.00
41250;BME280;26984;59.928;30.306;2023-02-28T04:18:55;100863.75;;;0.58;100.00
41250;BME280;26984;59.928;30.306;2023-02-28T04:21:28;100864.72;;;0.57;100.00
41250;BME280;26984;59.928;30.306;2023-02-28T04:23:56;100855.94;;;0.56;100.00
41250;BME280;26984;59.928;30.306;2023-02-28T04:26:29;100873.53;;;0.57;100.00
41250;BME280;26984;59.928;30.306;2023-02-28T04:28:57;100876.47;;;0.54;100.00
41250;BME280;26984;59.928;30.306;2023-02-28T04:31:24;100861.22;;;0.56;100.00
41250;BME280;26984;59.928;30.306;2023-02-28T04:33:52;100864.44;;;0.60;100.00
41250;BME280;26984;59.928;30.306;2023-02-28T04:36:19;100866.81;;;0.53;100.00
41250;BME280;26984;59.928;30.306;2023-02-28T04:38:48;100872.44;;;0.50;100.00
41250;BME280;26984;59.928;30.306;2023-02-28T04:41:16;100866.97;;;0.52;100.00
41250;BME280;26984;59.928;30.306;2023-02-28T04:43:45;100839.09;;;0.47;100.00
41250;BME280;26984;59.928;30.306;2023-02-28T04:46:13;100826.97;;;0.45;100.00
41250;BME280;26984;59.928;30.306;2023-02-28T04:48:41;100825.31;;;0.44;100.00
41250;BME280;26984;59.928;30.306;2023-02-28T04:51:10;100838.81;;;0.51;100.00
41250;BME280;26984;59.928;30.306;2023-02-28T04:53:38;100848.44;;;0.52;100.00
41250;BME280;26984;59.928;30.306;2023-02-28T04:56:06;100858.59;;;0.56;100.00
41250;BME280;26984;59.928;30.306;2023-02-28T04:58:34;100846.84;;;0.59;100.00
41250;BME280;26984;59.928;30.306;2023-02-28T05:01:03;100832.22;;;0.55;100.00
41250;BME280;26984;59.928;30.306;2023-02-28T05:03:38;100829.88;;;0.52;100.00
41250;BME280;26984;59.928;30.306;2023-02-28T05:06:06;100825.09;;;0.55;100.00
41250;BME280;26984;59.928;30.306;2023-02-28T05:08:34;100826.94;;;0.55;100.00
41250;BME280;26984;59.928;30.306;2023-02-28T05:11:01;100844.13;;;0.51;100.00
41250;BME280;26984;59.928;30.306;2023-02-28T05:13:29;100847.31;;;0.54;100.00
41250;BME280;26984;59.928;30.306;2023-02-28T05:15:57;100852.44;;;0.56;100.00
41250;BME280;26984;59.928;30.306;2023-02-28T05:18:26;100850.78;;;0.55;100.00
41250;BME280;26984;59.928;30.306;2023-02-28T05:20:53;100863.34;;;0.53;100.00
41250;BME280;26984;59.928;30.306;2023-02-28T05:23:20;100852.59;;;0.54;100.00
41250;BME280;26984;59.928;30.306;2023-02-28T05:25:49;100847.84;;;0.58;100.00
41250;BME280;26984;59.928;30.306;2023-02-28T05:28:17;100845.03;;;0.59;100.00
41250;BME280;26984;59.928;30.306;2023-02-28T05:30:45;100825.28;;;0.54;100.00
41250;BME280;26984;59.928;30.306;2023-02-28T05:33:13;100846.16;;;0.57;100.00
41250;BME280;26984;59.928;30.306;2023-02-28T05:35:42;100842.69;;;0.56;100.00
41250;BME280;26984;59.928;30.306;2023-02-28T05:38:09;100836.00;;;0.52;100.00
41250;BME280;26984;59.928;30.306;2023-02-28T05:40:38;100847.16;;;0.56;100.00
41250;BME280;26984;59.928;30.306;2023-02-28T05:43:05;100843.91;;;0.62;100.00
41250;BME280;26984;59.928;30.306;2023-02-28T05:45:33;100858.56;;;0.66;100.00
41250;BME280;26984;59.928;30.306;2023-02-28T05:48:00;100880.75;;;0.65;100.00
41250;BME280;26984;59.928;30.306;2023-02-28T05:50:28;100857.75;;;0.56;100.00
41250;BME280;26984;59.928;30.306;2023-02-28T05:52:57;100863.09;;;0.46;100.00
41250;BME280;26984;59.928;30.306;2023-02-28T05:55:24;100877.31;;;0.45;100.00
41250;BME280;26984;59.928;30.306;2023-02-28T05:57:52;100887.53;;;0.40;100.00
41250;BME280;26984;59.928;30.306;2023-02-28T06:00:19;100909.47;;;0.22;100.00
41250;BME280;26984;59.928;30.306;2023-02-28T06:02:47;100884.53;;;0.06;100.00
41250;BME280;26984;59.928;30.306;2023-02-28T06:05:15;100884.09;;;0.10;100.00
41250;BME280;26984;59.928;30.306;2023-02-28T06:07:43;100902.91;;;0.17;100.00
41250;BME280;26984;59.928;30.306;2023-02-28T06:10:13;100895.97;;;0.16;100.00
41250;BME280;26984;59.928;30.306;2023-02-28T06:12:40;100916.03;;;0.18;100.00
41250;BME280;26984;59.928;30.306;2023-02-28T06:15:10;100917.69;;;0.19;100.00
41250;BME280;26984;59.928;30.306;2023-02-28T06:17:38;100924.09;;;0.27;100.00
41250;BME280;26984;59.928;30.306;2023-02-28T06:20:06;100927.56;;;0.37;100.00
41250;BME280;26984;59.928;30.306;2023-02-28T06:22:34;100918.91;;;0.35;100.00
41250;BME280;26984;59.928;30.306;2023-02-28T06:25:02;100924.94;;;0.27;100.00
41250;BME280;26984;59.928;30.306;2023-02-28T06:27:31;100925.75;;;0.37;100.00
41250;BME280;26984;59.928;30.306;2023-02-28T06:29:59;100922.41;;;0.35;100.00
41250;BME280;26984;59.928;30.306;2023-02-28T06:32:26;100931.72;;;0.49;100.00
41250;BME280;26984;59.928;30.306;2023-02-28T06:34:54;100933.25;;;0.52;100.00
41250;BME280;26984;59.928;30.306;2023-02-28T06:37:23;100926.28;;;0.51;100.00
41250;BME280;26984;59.928;30.306;2023-02-28T06:39:52;100938.13;;;0.56;100.00
41250;BME280;26984;59.928;30.306;2023-02-28T06:42:19;100947.34;;;0.52;100.00
41250;BME280;26984;59.928;30.306;2023-02-28T06:44:49;100950.97;;;0.61;100.00
41250;BME280;26984;59.928;30.306;2023-02-28T06:47:16;100965.44;;;0.66;100.00
41250;BME280;26984;59.928;30.306;2023-02-28T06:49:44;100954.41;;;0.71;100.00
41250;BME280;26984;59.928;30.306;2023-02-28T06:52:12;100973.94;;;0.70;100.00
41250;BME280;26984;59.928;30.306;2023-02-28T06:54:39;100990.28;;;0.75;100.00
41250;BME280;26984;59.928;30.306;2023-02-28T06:57:07;101002.69;;;0.75;100.00
41250;BME280;26984;59.928;30.306;2023-02-28T06:59:34;101006.31;;;0.74;100.00
41250;BME280;26984;59.928;30.306;2023-02-28T07:02:03;100998.47;;;0.82;100.00
41250;BME280;26984;59.928;30.306;2023-02-28T07:04:32;101012.59;;;0.82;100.00
41250;BME280;26984;59.928;30.306;2023-02-28T07:06:59;101003.53;;;0.75;100.00
41250;BME280;26984;59.928;30.306;2023-02-28T07:09:27;101028.09;;;0.77;100.00
41250;BME280;26984;59.928;30.306;2023-02-28T07:11:55;101021.94;;;0.77;100.00
41250;BME280;26984;59.928;30.306;2023-02-28T07:14:23;101034.81;;;0.71;100.00
41250;BME280;26984;59.928;30.306;2023-02-28T07:16:50;101029.63;;;0.70;100.00
41250;BME280;26984;59.928;30.306;2023-02-28T07:19:19;101015.81;;;0.76;100.00
41250;BME280;26984;59.928;30.306;2023-02-28T07:21:47;101053.63;;;0.78;100.00
41250;BME280;26984;59.928;30.306;2023-02-28T07:24:15;101037.59;;;0.70;100.00
41250;BME280;26984;59.928;30.306;2023-02-28T07:26:43;101032.28;;;0.70;100.00
41250;BME280;26984;59.928;30.306;2023-02-28T07:29:11;101021.41;;;0.63;98.09
41250;BME280;26984;59.928;30.306;2023-02-28T07:31:38;101019.19;;;0.68;95.21
41250;BME280;26984;59.928;30.306;2023-02-28T07:34:06;101043.06;;;0.68;92.56
41250;BME280;26984;59.928;30.306;2023-02-28T07:36:35;101025.16;;;0.70;94.70
41250;BME280;26984;59.928;30.306;2023-02-28T07:39:02;101025.31;;;0.79;93.73
41250;BME280;26984;59.928;30.306;2023-02-28T07:41:30;101014.44;;;0.72;90.52
41250;BME280;26984;59.928;30.306;2023-02-28T07:43:59;101031.72;;;0.76;87.73
41250;BME280;26984;59.928;30.306;2023-02-28T07:46:27;101007.28;;;0.82;86.30
41250;BME280;26984;59.928;30.306;2023-02-28T07:49:01;101011.19;;;0.78;81.91
41250;BME280;26984;59.928;30.306;2023-02-28T07:51:28;101020.28;;;0.76;81.95
41250;BME280;26984;59.928;30.306;2023-02-28T07:53:58;101011.63;;;0.74;82.49
41250;BME280;26984;59.928;30.306;2023-02-28T07:56:25;101007.16;;;0.74;77.79
41250;BME280;26984;59.928;30.306;2023-02-28T07:58:53;101020.84;;;0.79;76.99
41250;BME280;26984;59.928;30.306;2023-02-28T08:01:20;101013.44;;;0.73;74.55
41250;BME280;26984;59.928;30.306;2023-02-28T08:03:48;101022.94;;;0.76;72.61
41250;BME280;26984;59.928;30.306;2023-02-28T08:06:16;101034.22;;;0.78;74.54
41250;BME280;26984;59.928;30.306;2023-02-28T08:08:43;101015.53;;;0.79;74.27
41250;BME280;26984;59.928;30.306;2023-02-28T08:11:13;101020.25;;;0.85;72.32
41250;BME280;26984;59.928;30.306;2023-02-28T08:13:40;101010.63;;;0.84;71.51
41250;BME280;26984;59.928;30.306;2023-02-28T08:16:09;101020.69;;;0.71;72.60
41250;BME280;26984;59.928;30.306;2023-02-28T08:18:37;101025.03;;;0.72;73.19
41250;BME280;26984;59.928;30.306;2023-02-28T08:21:06;101014.09;;;0.85;68.67
41250;BME280;26984;59.928;30.306;2023-02-28T08:23:33;101018.88;;;0.81;69.62
41250;BME280;26984;59.928;30.306;2023-02-28T08:26:01;101031.00;;;0.84;68.42
41250;BME280;26984;59.928;30.306;2023-02-28T08:28:30;101034.78;;;0.81;69.20
41250;BME280;26984;59.928;30.306;2023-02-28T08:30:57;101065.34;;;0.85;67.97
41250;BME280;26984;59.928;30.306;2023-02-28T08:33:27;101040.06;;;1.01;67.49
41250;BME280;26984;59.928;30.306;2023-02-28T08:35:55;101033.03;;;1.00;66.79
41250;BME280;26984;59.928;30.306;2023-02-28T08:38:22;101057.91;;;1.08;66.84
41250;BME280;26984;59.928;30.306;2023-02-28T08:40:56;101053.97;;;1.12;66.52
41250;BME280;26984;59.928;30.306;2023-02-28T08:43:24;101059.09;;;1.24;66.37
41250;BME280;26984;59.928;30.306;2023-02-28T08:45:53;101044.44;;;1.19;66.10
41250;BME280;26984;59.928;30.306;2023-02-28T08:48:22;101071.56;;;1.13;64.72
41250;BME280;26984;59.928;30.306;2023-02-28T08:50:56;101060.94;;;1.13;66.38
41250;BME280;26984;59.928;30.306;2023-02-28T08:53:24;101066.56;;;1.10;66.07
41250;BME280;26984;59.928;30.306;2023-02-28T08:56:01;101069.63;;;1.06;65.82
41250;BME280;26984;59.928;30.306;2023-02-28T08:58:29;101069.34;;;0.99;64.40
41250;BME280;26984;59.928;30.306;2023-02-28T09:00:58;101071.63;;;0.94;66.18
41250;BME280;26984;59.928;30.306;2023-02-28T09:03:25;101074.00;;;0.97;67.17
41250;BME280;26984;59.928;30.306;2023-02-28T09:05:54;101086.09;;;1.00;66.69
41250;BME280;26984;59.928;30.306;2023-02-28T09:08:22;101089.47;;;1.02;65.89
41250;BME280;26984;59.928;30.306;2023-02-28T09:10:50;101097.00;;;1.06;65.65
41250;BME280;26984;59.928;30.306;2023-02-28T09:13:18;101082.06;;;1.05;67.96
41250;BME280;26984;59.928;30.306;2023-02-28T09:15:46;101094.06;;;1.09;68.31
41250;BME280;26984;59.928;30.306;2023-02-28T09:18:14;101082.50;;;1.10;68.65
41250;BME280;26984;59.928;30.306;2023-02-28T09:20:42;101076.59;;;1.16;67.45
41250;BME280;26984;59.928;30.306;2023-02-28T09:23:11;101074.72;;;1.27;66.40
41250;BME280;26984;59.928;30.306;2023-02-28T09:25:44;101082.69;;;1.27;66.58
41250;BME280;26984;59.928;30.306;2023-02-28T09:28:12;101074.44;;;1.30;66.78
41250;BME280;26984;59.928;30.306;2023-02-28T09:30:40;101076.78;;;1.42;64.71
41250;BME280;26984;59.928;30.306;2023-02-28T09:33:07;101083.59;;;1.45;61.74
41250;BME280;26984;59.928;30.306;2023-02-28T09:35:36;101072.59;;;1.40;63.02
41250;BME280;26984;59.928;30.306;2023-02-28T09:38:04;101069.09;;;1.39;64.54
41250;BME280;26984;59.928;30.306;2023-02-28T09:40:34;101069.56;;;1.62;70.76
41250;BME280;26984;59.928;30.306;2023-02-28T09:43:03;101081.34;;;1.78;76.62
41250;BME280;26984;59.928;30.306;2023-02-28T09:45:32;101075.63;;;1.82;81.30
41250;BME280;26984;59.928;30.306;2023-02-28T09:48:01;101080.09;;;1.82;78.81
41250;BME280;26984;59.928;30.306;2023-02-28T09:50:31;101067.66;;;1.82;82.24
41250;BME280;26984;59.928;30.306;2023-02-28T09:53:01;101077.34;;;1.91;84.08
41250;BME280;26984;59.928;30.306;2023-02-28T09:55:30;101073.81;;;2.01;84.02
41250;BME280;26984;59.928;30.306;2023-02-28T09:58:00;101068.88;;;2.06;79.11
41250;BME280;26984;59.928;30.306;2023-02-28T10:00:29;101080.38;;;2.24;75.68
41250;BME280;26984;59.928;30.306;2023-02-28T10:03:11;101088.66;;;2.21;76.53
41250;BME280;26984;59.928;30.306;2023-02-28T10:05:48;101092.13;;;2.04;66.20
41250;BME280;26984;59.928;30.306;2023-02-28T10:08:21;101091.25;;;1.85;54.85
41250;BME280;26984;59.928;30.306;2023-02-28T10:10:53;101092.44;;;1.73;52.41
41250;BME280;26984;59.928;30.306;2023-02-28T10:13:24;101072.16;;;1.72;51.24
41250;BME280;26984;59.928;30.306;2023-02-28T10:15:54;101098.63;;;1.64;51.74
41250;BME280;26984;59.928;30.306;2023-02-28T10:18:25;101106.81;;;1.71;50.16
41250;BME280;26984;59.928;30.306;2023-02-28T10:20:54;101132.97;;;1.75;47.24
41250;BME280;26984;59.928;30.306;2023-02-28T10:23:25;101104.38;;;1.59;46.02
41250;BME280;26984;59.928;30.306;2023-02-28T10:25:54;101107.03;;;1.59;46.92
41250;BME280;26984;59.928;30.306;2023-02-28T10:28:22;101106.34;;;1.57;46.43
41250;BME280;26984;59.928;30.306;2023-02-28T10:30:52;101092.28;;;1.47;44.63
41250;BME280;26984;59.928;30.306;2023-02-28T10:33:21;101110.75;;;1.39;44.97
41250;BME280;26984;59.928;30.306;2023-02-28T10:35:49;101116.84;;;1.49;44.26
41250;BME280;26984;59.928;30.306;2023-02-28T10:38:18;101089.81;;;1.36;44.56
41250;BME280;26984;59.928;30.306;2023-02-28T10:40:47;101109.34;;;1.35;45.55
41250;BME280;26984;59.928;30.306;2023-02-28T10:43:19;101101.47;;;1.53;45.94
41250;BME280;26984;59.928;30.306;2023-02-28T10:45:55;101111.66;;;1.57;45.28
41250;BME280;26984;59.928;30.306;2023-02-28T10:48:26;101092.47;;;1.63;45.61
41250;BME280;26984;59.928;30.306;2023-02-28T10:50:55;101111.75;;;1.65;44.68
41250;BME280;26984;59.928;30.306;2023-02-28T10:53:34;101110.94;;;1.65;45.77
41250;BME280;26984;59.928;30.306;2023-02-28T10:56:04;101106.28;;;1.67;45.29
41250;BME280;26984;59.928;30.306;2023-02-28T10:58:42;101123.66;;;1.61;45.99
41250;BME280;26984;59.928;30.306;2023-02-28T11:01:14;101120.22;;;1.79;45.87
41250;BME280;26984;59.928;30.306;2023-02-28T11:03:42;101110.34;;;1.71;44.48
41250;BME280;26984;59.928;30.306;2023-02-28T11:06:13;101104.13;;;1.80;45.25
41250;BME280;26984;59.928;30.306;2023-02-28T11:08:46;101107.34;;;1.84;42.16
41250;BME280;26984;59.928;30.306;2023-02-28T11:11:16;101111.91;;;1.64;41.71
41250;BME280;26984;59.928;30.306;2023-02-28T11:13:44;101125.13;;;1.74;41.60
41250;BME280;26984;59.928;30.306;2023-02-28T11:16:13;101101.22;;;1.74;39.86
41250;BME280;26984;59.928;30.306;2023-02-28T11:18:42;101127.84;;;1.64;40.39
41250;BME280;26984;59.928;30.306;2023-02-28T11:21:15;101111.59;;;1.67;38.18
41250;BME280;26984;59.928;30.306;2023-02-28T11:23:43;101117.53;;;1.61;37.98
41250;BME280;26984;59.928;30.306;2023-02-28T11:26:34;101098.75;;;1.62;37.87
41250;BME280;26984;59.928;30.306;2023-02-28T11:29:08;101114.56;;;1.64;38.38
41250;BME280;26984;59.928;30.306;2023-02-28T11:31:36;101109.66;;;1.69;37.18
41250;BME280;26984;59.928;30.306;2023-02-28T11:34:20;101115.41;;;1.64;38.45
41250;BME280;26984;59.928;30.306;2023-02-28T11:36:49;101110.28;;;1.53;37.02
41250;BME280;26984;59.928;30.306;2023-02-28T11:39:16;101119.09;;;1.44;38.05
41250;BME280;26984;59.928;30.306;2023-02-28T11:41:54;101099.34;;;1.29;38.33
41250;BME280;26984;59.928;30.306;2023-02-28T11:44:31;101122.06;;;1.31;39.33
41250;BME280;26984;59.928;30.306;2023-02-28T11:47:04;101119.97;;;1.35;38.61
41250;BME280;26984;59.928;30.306;2023-02-28T11:49:37;101103.38;;;1.33;38.83
41250;BME280;26984;59.928;30.306;2023-02-28T11:52:13;101114.63;;;1.44;38.44
41250;BME280;26984;59.928;30.306;2023-02-28T11:54:50;101097.00;;;1.53;39.34
41250;BME280;26984;59.928;30.306;2023-02-28T11:57:28;101103.69;;;1.57;39.09
41250;BME280;26984;59.928;30.306;2023-02-28T12:00:02;101096.84;;;1.55;39.89
41250;BME280;26984;59.928;30.306;2023-02-28T12:02:42;101106.75;;;1.53;40.10
41250;BME280;26984;59.928;30.306;2023-02-28T12:05:20;101118.94;;;1.55;39.73
41250;BME280;26984;59.928;30.306;2023-02-28T12:07:55;101110.56;;;1.50;39.24
41250;BME280;26984;59.928;30.306;2023-02-28T12:10:28;101103.19;;;1.44;40.73
41250;BME280;26984;59.928;30.306;2023-02-28T12:13:02;101121.19;;;1.50;40.33
41250;BME280;26984;59.928;30.306;2023-02-28T12:15:45;101111.94;;;1.54;40.36
41250;BME280;26984;59.928;30.306;2023-02-28T12:18:24;101104.84;;;1.45;39.29
41250;BME280;26984;59.928;30.306;2023-02-28T12:20:56;101122.69;;;1.53;37.54
41250;BME280;26984;59.928;30.306;2023-02-28T12:23:43;101123.72;;;1.42;37.45
41250;BME280;26984;59.928;30.306;2023-02-28T12:26:16;101146.69;;;1.24;36.83
41250;BME280;26984;59.928;30.306;2023-02-28T12:28:47;101145.47;;;1.18;36.42
41250;BME280;26984;59.928;30.306;2023-02-28T12:31:19;101137.22;;;1.11;37.29
41250;BME280;26984;59.928;30.306;2023-02-28T12:33:50;101127.84;;;1.17;37.80
41250;BME280;26984;59.928;30.306;2023-02-28T12:36:19;101146.28;;;1.18;37.69
41250;BME280;26984;59.928;30.306;2023-02-28T12:38:51;101141.81;;;1.19;37.85
41250;BME280;26984;59.928;30.306;2023-02-28T12:41:22;101113.00;;;1.24;38.44
41250;BME280;26984;59.928;30.306;2023-02-28T12:43:52;101118.19;;;1.35;38.40
41250;BME280;26984;59.928;30.306;2023-02-28T12:46:25;101137.16;;;1.40;38.25
41250;BME280;26984;59.928;30.306;2023-02-28T12:48:55;101126.63;;;1.49;37.41
41250;BME280;26984;59.928;30.306;2023-02-28T12:51:23;101128.31;;;1.50;38.28
41250;BME280;26984;59.928;30.306;2023-02-28T12:53:58;101127.00;;;1.63;37.76
41250;BME280;26984;59.928;30.306;2023-02-28T12:56:30;101131.75;;;1.60;37.77
41250;BME280;26984;59.928;30.306;2023-02-28T12:59:01;101130.38;;;1.56;39.67